createdAt,value
2022-11-23T00:02:20.442Z,100.00
2022-11-23T00:04:46.868Z,100.00
2022-11-23T00:07:13.697Z,100.00
2022-11-23T00:09:40.124Z,100.00
2022-11-23T00:12:06.741Z,100.00
2022-11-23T00:14:33.135Z,100.00
2022-11-23T00:16:59.538Z,100.00
2022-11-23T00:19:25.935Z,100.00
2022-11-23T00:21:52.327Z,100.00
2022-11-23T00:24:18.743Z,100.00
2022-11-23T00:26:45.166Z,100.00
2022-11-23T00:29:11.583Z,100.00
2022-11-23T00:31:39.513Z,100.00
2022-11-23T00:34:07.060Z,100.00
2022-11-23T00:36:33.467Z,100.00
2022-11-23T00:39:00.097Z,100.00
2022-11-23T00:41:28.493Z,100.00
2022-11-23T00:43:55.245Z,100.00
2022-11-23T00:46:27.214Z,100.00
2022-11-23T00:48:56.201Z,100.00
2022-11-23T00:51:29.379Z,100.00
2022-11-23T00:53:56.260Z,100.00
2022-11-23T00:56:24.618Z,100.00
2022-11-23T00:58:55.622Z,100.00
2022-11-23T01:01:24.802Z,100.00
2022-11-23T01:03:54.693Z,100.00
2022-11-23T01:06:24.031Z,100.00
2022-11-23T01:08:56.950Z,100.00
2022-11-23T01:11:25.597Z,100.00
2022-11-23T01:13:53.248Z,100.00
2022-11-23T01:16:24.355Z,100.00
2022-11-23T01:18:59.173Z,100.00
2022-11-23T01:21:27.445Z,100.00
2022-11-23T01:23:54.524Z,100.00
2022-11-23T01:26:21.546Z,100.00
2022-11-23T01:28:48.693Z,100.00
2022-11-23T01:31:21.485Z,100.00
2022-11-23T01:33:52.077Z,100.00
2022-11-23T01:36:21.728Z,100.00
2022-11-23T01:38:50.117Z,100.00
2022-11-23T01:41:20.596Z,100.00
2022-11-23T01:43:48.116Z,100.00
2022-11-23T01:46:14.980Z,100.00
2022-11-23T01:48:51.929Z,100.00
2022-11-23T01:51:32.070Z,100.00
2022-11-23T01:54:02.200Z,100.00
2022-11-23T01:56:34.169Z,100.00
2022-11-23T01:59:04.646Z,100.00
2022-11-23T02:01:31.387Z,100.00
2022-11-23T02:04:00.411Z,100.00
2022-11-23T02:06:26.961Z,100.00
2022-11-23T02:08:53.806Z,100.00
2022-11-23T02:11:20.418Z,100.00
2022-11-23T02:13:50.122Z,100.00
2022-11-23T02:16:18.105Z,100.00
2022-11-23T02:18:48.421Z,100.00
2022-11-23T02:21:15.009Z,100.00
2022-11-23T02:23:57.348Z,100.00
2022-11-23T02:26:29.683Z,100.00
2022-11-23T02:29:07.719Z,100.00
2022-11-23T02:31:34.333Z,100.00
2022-11-23T02:34:00.730Z,100.00
2022-11-23T02:36:36.713Z,100.00
2022-11-23T02:39:20.747Z,100.00
2022-11-23T02:41:53.022Z,100.00
2022-11-23T02:44:56.964Z,100.00
2022-11-23T02:47:23.481Z,100.00
2022-11-23T02:49:49.946Z,100.00
2022-11-23T02:52:18.372Z,100.00
2022-11-23T02:54:45.585Z,100.00
2022-11-23T02:57:12.726Z,100.00
2022-11-23T02:59:40.563Z,100.00
2022-11-23T03:02:07.928Z,100.00
2022-11-23T03:04:35.339Z,100.00
2022-11-23T03:07:01.770Z,100.00
2022-11-23T03:09:28.265Z,100.00
2022-11-23T03:11:54.751Z,100.00
2022-11-23T03:14:21.888Z,100.00
2022-11-23T03:16:57.854Z,100.00
2022-11-23T03:19:25.125Z,100.00
2022-11-23T03:21:52.721Z,100.00
2022-11-23T03:24:19.179Z,100.00
2022-11-23T03:26:46.788Z,100.00
2022-11-23T03:29:18.445Z,100.00
2022-11-23T03:31:44.898Z,100.00
2022-11-23T03:34:14.430Z,100.00
2022-11-23T03:36:40.906Z,100.00
2022-11-23T03:39:08.060Z,100.00
2022-11-23T03:41:56.363Z,100.00
2022-11-23T03:44:28.386Z,100.00
2022-11-23T03:46:54.846Z,100.00
2022-11-23T03:49:21.256Z,100.00
2022-11-23T03:51:47.899Z,100.00
2022-11-23T03:54:14.398Z,100.00
2022-11-23T03:56:40.940Z,100.00
2022-11-23T03:59:07.377Z,100.00
2022-11-23T04:01:33.767Z,100.00
2022-11-23T04:04:04.348Z,100.00
2022-11-23T04:06:51.255Z,100.00
2022-11-23T04:09:21.794Z,100.00
2022-11-23T04:12:09.800Z,100.00
2022-11-23T04:14:37.806Z,100.00
2022-11-23T04:17:04.513Z,100.00
2022-11-23T04:19:31.406Z,100.00
2022-11-23T04:21:58.288Z,100.00
2022-11-23T04:24:26.818Z,100.00
2022-11-23T04:26:56.448Z,100.00
2022-11-23T04:29:23.809Z,100.00
2022-11-23T04:31:52.888Z,100.00
2022-11-23T04:34:19.832Z,100.00
2022-11-23T04:36:48.489Z,100.00
2022-11-23T04:39:15.098Z,100.00
2022-11-23T04:41:55.077Z,100.00
2022-11-23T04:44:22.303Z,100.00
2022-11-23T04:46:52.956Z,100.00
2022-11-23T04:49:20.468Z,100.00
2022-11-23T04:51:47.101Z,100.00
2022-11-23T04:54:15.503Z,100.00
2022-11-23T04:56:48.934Z,100.00
2022-11-23T04:59:15.827Z,100.00
2022-11-23T05:01:42.455Z,100.00
2022-11-23T05:04:28.844Z,100.00
2022-11-23T05:06:55.216Z,100.00
2022-11-23T05:09:22.933Z,100.00
2022-11-23T05:12:03.434Z,100.00
2022-11-23T05:14:31.714Z,100.00
2022-11-23T05:16:58.183Z,100.00
2022-11-23T05:19:25.913Z,100.00
2022-11-23T05:21:52.381Z,100.00
2022-11-23T05:24:19.154Z,100.00
2022-11-23T05:26:57.903Z,100.00
2022-11-23T05:29:24.517Z,100.00
2022-11-23T05:31:52.031Z,100.00
2022-11-23T05:34:18.610Z,100.00
2022-11-23T05:36:46.402Z,100.00
2022-11-23T05:39:13.680Z,100.00
2022-11-23T05:41:40.169Z,100.00
2022-11-23T05:44:19.144Z,100.00
2022-11-23T05:46:45.808Z,100.00
2022-11-23T05:49:13.166Z,100.00
2022-11-23T05:51:40.208Z,100.00
2022-11-23T05:54:07.349Z,100.00
2022-11-23T05:56:45.024Z,100.00
2022-11-23T05:59:17.711Z,100.00
2022-11-23T06:01:49.409Z,100.00
2022-11-23T06:04:23.575Z,100.00
2022-11-23T06:06:50.036Z,100.00
2022-11-23T06:09:17.749Z,100.00
2022-11-23T06:11:48.110Z,100.00
2022-11-23T06:14:18.259Z,100.00
2022-11-23T06:16:46.112Z,100.00
2022-11-23T06:19:38.475Z,100.00
2022-11-23T06:22:05.596Z,100.00
2022-11-23T06:24:37.117Z,100.00
2022-11-23T06:27:29.444Z,100.00
2022-11-23T06:29:56.146Z,100.00
2022-11-23T06:32:24.801Z,100.00
2022-11-23T06:34:51.298Z,100.00
2022-11-23T06:37:17.782Z,100.00
2022-11-23T06:39:49.951Z,100.00
2022-11-23T06:42:37.633Z,100.00
2022-11-23T06:45:03.554Z,100.00
2022-11-23T06:47:30.813Z,100.00
2022-11-23T06:49:57.737Z,100.00
2022-11-23T06:52:28.631Z,100.00
2022-11-23T06:55:42.941Z,100.00
2022-11-23T06:58:10.880Z,100.00
2022-11-23T07:00:37.312Z,100.00
2022-11-23T07:03:03.794Z,100.00
2022-11-23T07:05:38.692Z,100.00
2022-11-23T07:08:05.770Z,100.00
2022-11-23T07:10:32.928Z,100.00
2022-11-23T07:13:08.161Z,100.00
2022-11-23T07:15:36.653Z,100.00
2022-11-23T07:18:03.988Z,100.00
2022-11-23T07:20:31.369Z,100.00
2022-11-23T07:23:12.589Z,100.00
2022-11-23T07:25:40.224Z,100.00
2022-11-23T07:28:08.230Z,100.00
2022-11-23T07:30:36.180Z,100.00
2022-11-23T07:33:06.427Z,100.00
2022-11-23T07:35:36.035Z,100.00
2022-11-23T07:38:03.643Z,100.00
2022-11-23T07:40:30.775Z,100.00
2022-11-23T07:43:01.760Z,100.00
2022-11-23T07:45:29.260Z,100.00
2022-11-23T07:48:00.574Z,100.00
2022-11-23T07:50:27.907Z,100.00
2022-11-23T07:52:54.290Z,100.00
2022-11-23T07:55:20.674Z,100.00
2022-11-23T07:57:47.102Z,100.00
2022-11-23T08:00:14.011Z,100.00
2022-11-23T08:02:52.809Z,100.00
2022-11-23T08:05:26.887Z,100.00
2022-11-23T08:07:59.224Z,100.00
2022-11-23T08:10:30.232Z,100.00
2022-11-23T08:12:58.319Z,100.00
2022-11-23T08:15:25.166Z,100.00
2022-11-23T08:17:55.922Z,100.00
2022-11-23T08:20:22.393Z,100.00
2022-11-23T08:22:48.886Z,100.00
2022-11-23T08:25:15.360Z,100.00
2022-11-23T08:27:41.741Z,100.00
2022-11-23T08:30:08.593Z,100.00
2022-11-23T08:32:35.386Z,100.00
2022-11-23T08:35:01.809Z,100.00
2022-11-23T08:37:28.202Z,100.00
2022-11-23T08:39:54.595Z,100.00
2022-11-23T08:42:20.997Z,100.00
2022-11-23T08:44:47.386Z,100.00
2022-11-23T08:47:13.819Z,100.00
2022-11-23T08:49:40.206Z,100.00
2022-11-23T08:52:06.607Z,100.00
2022-11-23T08:54:33.369Z,100.00
2022-11-23T08:57:00.042Z,100.00
2022-11-23T08:59:26.454Z,100.00
2022-11-23T09:01:52.902Z,100.00
2022-11-23T09:04:20.903Z,100.00
2022-11-23T09:06:47.577Z,100.00
2022-11-23T09:09:13.962Z,100.00
2022-11-23T09:11:40.363Z,100.00
2022-11-23T09:14:06.776Z,100.00
2022-11-23T09:16:34.155Z,100.00
2022-11-23T09:19:00.790Z,100.00
2022-11-23T09:21:33.318Z,100.00
2022-11-23T09:23:59.725Z,100.00
2022-11-23T09:26:26.868Z,100.00
2022-11-23T09:28:53.526Z,100.00
2022-11-23T09:31:19.950Z,100.00
2022-11-23T09:33:46.338Z,100.00
2022-11-23T09:36:12.732Z,100.00
2022-11-23T09:38:55.755Z,100.00
2022-11-23T09:41:40.248Z,100.00
2022-11-23T09:44:21.539Z,100.00
2022-11-23T09:46:55.842Z,100.00
2022-11-23T09:49:28.461Z,100.00
2022-11-23T09:51:55.892Z,100.00
2022-11-23T09:54:32.433Z,100.00
2022-11-23T09:57:01.832Z,100.00
2022-11-23T09:59:40.833Z,100.00
2022-11-23T10:02:21.976Z,100.00
2022-11-23T10:04:48.737Z,100.00
2022-11-23T10:07:32.880Z,100.00
2022-11-23T10:10:11.131Z,100.00
2022-11-23T10:12:53.321Z,100.00
2022-11-23T10:15:39.040Z,100.00
2022-11-23T10:18:47.509Z,100.00
2022-11-23T10:21:45.708Z,100.00
2022-11-23T10:24:20.938Z,100.00
2022-11-23T10:26:49.894Z,100.00
2022-11-23T10:29:37.914Z,100.00
2022-11-23T10:32:32.603Z,100.00
2022-11-23T10:35:17.193Z,100.00
2022-11-23T10:37:44.310Z,100.00
2022-11-23T10:40:22.931Z,100.00
2022-11-23T10:42:59.071Z,100.00
2022-11-23T10:45:27.893Z,100.00
2022-11-23T10:47:58.809Z,100.00
2022-11-23T10:50:40.927Z,100.00
2022-11-23T10:53:10.062Z,100.00
2022-11-23T10:55:57.961Z,100.00
2022-11-23T10:58:31.358Z,100.00
2022-11-23T11:01:03.903Z,100.00
2022-11-23T11:03:33.237Z,100.00
2022-11-23T11:06:08.976Z,100.00
2022-11-23T11:09:17.947Z,100.00
2022-11-23T11:11:48.914Z,100.00
2022-11-23T11:14:17.722Z,100.00
2022-11-23T11:16:52.437Z,100.00
2022-11-23T11:19:31.371Z,100.00
2022-11-23T11:21:59.851Z,100.00
2022-11-23T11:24:43.808Z,100.00
2022-11-23T11:27:15.843Z,100.00
2022-11-23T11:29:45.251Z,100.00
2022-11-23T11:32:25.653Z,100.00
2022-11-23T11:34:58.370Z,100.00
2022-11-23T11:37:40.526Z,100.00
2022-11-23T11:40:22.532Z,100.00
2022-11-23T11:43:11.706Z,100.00
2022-11-23T11:45:59.696Z,100.00
2022-11-23T11:48:36.130Z,100.00
2022-11-23T11:51:13.431Z,100.00
2022-11-23T11:53:47.352Z,100.00
2022-11-23T11:56:25.822Z,100.00
2022-11-23T11:58:59.207Z,99.72
2022-11-23T12:01:38.156Z,99.81
2022-11-23T12:04:08.165Z,99.73
2022-11-23T12:06:51.918Z,99.90
2022-11-23T12:09:22.731Z,99.01
2022-11-23T12:11:49.239Z,99.23
2022-11-23T12:14:16.691Z,99.46
2022-11-23T12:17:31.921Z,98.75
2022-11-23T12:20:08.950Z,98.60
2022-11-23T12:23:02.946Z,98.63
2022-11-23T12:25:36.245Z,99.01
2022-11-23T12:28:40.251Z,98.72
2022-11-23T12:31:39.430Z,98.72
2022-11-23T12:34:26.273Z,98.56
2022-11-23T12:37:06.689Z,99.21
2022-11-23T12:40:00.676Z,99.34
2022-11-23T12:42:49.479Z,98.78
2022-11-23T12:45:29.406Z,99.17
2022-11-23T12:48:20.503Z,98.66
2022-11-23T12:51:04.567Z,98.73
2022-11-23T12:53:49.949Z,97.86
2022-11-23T12:56:29.852Z,98.32
2022-11-23T12:58:57.990Z,98.25
2022-11-23T13:01:39.101Z,97.42
2022-11-23T13:04:14.845Z,97.38
2022-11-23T13:07:12.814Z,97.97
2022-11-23T13:09:57.769Z,97.54
2022-11-23T13:13:02.115Z,98.07
2022-11-23T13:15:47.117Z,97.90
2022-11-23T13:18:38.605Z,97.10
2022-11-23T13:21:23.796Z,97.59
2022-11-23T13:23:50.506Z,97.63
2022-11-23T13:26:28.496Z,97.76
2022-11-23T13:28:57.705Z,97.35
2022-11-23T13:31:28.248Z,97.46
2022-11-23T13:33:56.915Z,97.53
2022-11-23T13:37:10.442Z,97.42
2022-11-23T13:39:58.810Z,97.45
2022-11-23T13:42:27.634Z,97.23
2022-11-23T13:45:21.784Z,97.03
2022-11-23T13:48:05.504Z,97.33
2022-11-23T13:50:32.850Z,97.80
2022-11-23T13:52:59.999Z,97.29
2022-11-23T13:55:35.212Z,97.18
2022-11-23T13:58:23.634Z,96.66
2022-11-23T14:00:54.322Z,97.14
2022-11-23T14:03:42.863Z,97.02
2022-11-23T14:06:24.142Z,97.49
2022-11-23T14:08:59.206Z,97.52
2022-11-23T14:11:27.160Z,97.49
2022-11-23T14:14:03.240Z,96.72
2022-11-23T14:16:40.527Z,97.21
2022-11-23T14:19:14.680Z,97.27
2022-11-23T14:22:08.199Z,96.83
2022-11-23T14:25:09.665Z,96.86
2022-11-23T14:28:00.262Z,97.39
2022-11-23T14:30:57.811Z,98.01
2022-11-23T14:33:34.821Z,98.07
2022-11-23T14:36:35.154Z,97.35
2022-11-23T14:39:31.791Z,97.66
2022-11-23T14:42:05.184Z,98.99
2022-11-23T14:44:38.112Z,98.72
2022-11-23T14:47:09.806Z,98.36
2022-11-23T14:49:36.830Z,99.17
2022-11-23T14:52:04.610Z,98.99
2022-11-23T14:54:32.234Z,99.21
2022-11-23T14:57:01.759Z,99.18
2022-11-23T14:59:32.551Z,100.00
2022-11-23T15:02:05.712Z,100.00
2022-11-23T15:04:36.944Z,100.00
2022-11-23T15:07:11.767Z,100.00
2022-11-23T15:10:11.127Z,100.00
2022-11-23T15:12:43.339Z,100.00
2022-11-23T15:15:25.254Z,100.00
2022-11-23T15:17:53.326Z,100.00
2022-11-23T15:20:21.058Z,100.00
2022-11-23T15:22:47.668Z,100.00
2022-11-23T15:25:16.370Z,100.00
2022-11-23T15:27:42.841Z,100.00
2022-11-23T15:30:18.526Z,100.00
2022-11-23T15:32:54.020Z,100.00
2022-11-23T15:35:21.749Z,100.00
2022-11-23T15:37:49.899Z,100.00
2022-11-23T15:40:18.455Z,100.00
2022-11-23T15:42:48.313Z,100.00
2022-11-23T15:45:58.486Z,100.00
2022-11-23T15:48:33.702Z,100.00
2022-11-23T15:51:02.893Z,100.00
2022-11-23T15:53:32.422Z,100.00
2022-11-23T15:56:02.588Z,100.00
2022-11-23T15:58:30.378Z,100.00
2022-11-23T16:01:07.527Z,100.00
2022-11-23T16:03:41.543Z,100.00
2022-11-23T16:06:10.982Z,100.00
2022-11-23T16:08:41.737Z,100.00
2022-11-23T16:11:31.617Z,100.00
2022-11-23T16:14:15.530Z,100.00
2022-11-23T16:16:45.828Z,100.00
2022-11-23T16:19:27.333Z,100.00
2022-11-23T16:22:02.013Z,100.00
2022-11-23T16:24:30.974Z,100.00
2022-11-23T16:26:57.970Z,100.00
2022-11-23T16:29:27.043Z,100.00
2022-11-23T16:31:59.652Z,100.00
2022-11-23T16:34:29.466Z,100.00
2022-11-23T16:36:56.266Z,100.00
2022-11-23T16:39:27.500Z,100.00
2022-11-23T16:41:54.400Z,100.00
2022-11-23T16:44:20.891Z,100.00
2022-11-23T16:46:47.631Z,100.00
2022-11-23T16:49:19.713Z,100.00
2022-11-23T16:51:56.193Z,100.00
2022-11-23T16:54:25.077Z,100.00
2022-11-23T16:56:52.276Z,100.00
2022-11-23T16:59:19.503Z,100.00
2022-11-23T17:01:53.886Z,100.00
2022-11-23T17:04:23.910Z,100.00
2022-11-23T17:06:50.363Z,100.00
2022-11-23T17:09:16.756Z,100.00
2022-11-23T17:11:46.396Z,100.00
2022-11-23T17:14:18.408Z,100.00
2022-11-23T17:16:46.242Z,100.00
2022-11-23T17:19:18.213Z,100.00
2022-11-23T17:21:45.075Z,100.00
2022-11-23T17:24:12.935Z,100.00
2022-11-23T17:26:46.101Z,100.00
2022-11-23T17:29:14.963Z,100.00
2022-11-23T17:31:43.460Z,100.00
2022-11-23T17:34:12.321Z,100.00
2022-11-23T17:36:38.922Z,100.00
2022-11-23T17:39:05.454Z,100.00
2022-11-23T17:41:31.845Z,100.00
2022-11-23T17:43:59.846Z,100.00
2022-11-23T17:46:28.063Z,100.00
2022-11-23T17:48:57.491Z,100.00
2022-11-23T17:51:24.771Z,100.00
2022-11-23T17:53:52.054Z,100.00
2022-11-23T17:56:20.507Z,100.00
2022-11-23T17:58:47.074Z,100.00
2022-11-23T18:01:15.585Z,100.00
2022-11-23T18:03:45.889Z,100.00
2022-11-23T18:06:23.662Z,100.00
2022-11-23T18:08:51.612Z,100.00
2022-11-23T18:11:19.039Z,100.00
2022-11-23T18:13:47.389Z,100.00
2022-11-23T18:16:14.483Z,100.00
2022-11-23T18:18:40.926Z,100.00
2022-11-23T18:21:08.031Z,100.00
2022-11-23T18:23:34.437Z,100.00
2022-11-23T18:26:16.391Z,100.00
2022-11-23T18:28:42.853Z,100.00
2022-11-23T18:31:09.333Z,100.00
2022-11-23T18:33:35.877Z,100.00
2022-11-23T18:36:05.634Z,100.00
2022-11-23T18:38:33.181Z,100.00
2022-11-23T18:40:59.819Z,100.00
2022-11-23T18:43:26.216Z,100.00
2022-11-23T18:45:53.049Z,100.00
2022-11-23T18:48:19.533Z,100.00
2022-11-23T18:50:45.956Z,100.00
2022-11-23T18:53:12.383Z,100.00
2022-11-23T18:55:38.799Z,100.00
2022-11-23T18:58:05.591Z,100.00
2022-11-23T19:00:31.985Z,100.00
2022-11-23T19:03:00.447Z,100.00
2022-11-23T19:05:29.898Z,100.00
2022-11-23T19:08:04.142Z,100.00
2022-11-23T19:10:36.051Z,100.00
2022-11-23T19:13:05.788Z,100.00
2022-11-23T19:15:32.929Z,100.00
2022-11-23T19:17:59.422Z,100.00
2022-11-23T19:20:25.877Z,100.00
2022-11-23T19:22:52.470Z,100.00
2022-11-23T19:25:19.284Z,100.00
2022-11-23T19:27:48.666Z,100.00
2022-11-23T19:30:15.380Z,100.00
2022-11-23T19:32:41.767Z,100.00
2022-11-23T19:35:08.170Z,100.00
2022-11-23T19:37:36.147Z,100.00
2022-11-23T19:40:02.558Z,100.00
2022-11-23T19:42:28.970Z,100.00
2022-11-23T19:44:55.374Z,100.00
2022-11-23T19:47:23.045Z,100.00
2022-11-23T19:49:49.534Z,100.00
2022-11-23T19:52:15.944Z,100.00
2022-11-23T19:54:42.351Z,100.00
2022-11-23T19:57:08.818Z,100.00
2022-11-23T19:59:35.599Z,100.00
2022-11-23T20:02:02.459Z,100.00
2022-11-23T20:04:29.014Z,100.00
2022-11-23T20:06:55.419Z,100.00
2022-11-23T20:09:23.535Z,100.00
2022-11-23T20:11:51.515Z,100.00
2022-11-23T20:14:18.641Z,100.00
2022-11-23T20:16:45.035Z,100.00
2022-11-23T20:19:11.640Z,100.00
2022-11-23T20:21:38.372Z,100.00
2022-11-23T20:24:07.787Z,100.00
2022-11-23T20:26:36.313Z,100.00
2022-11-23T20:29:03.778Z,100.00
2022-11-23T20:31:31.071Z,100.00
2022-11-23T20:33:57.609Z,100.00
2022-11-23T20:36:26.199Z,100.00
2022-11-23T20:38:53.375Z,100.00
2022-11-23T20:41:26.266Z,100.00
2022-11-23T20:43:58.131Z,100.00
2022-11-23T20:46:53.836Z,100.00
2022-11-23T20:49:13.040Z,100.00
2022-11-23T20:51:39.449Z,100.00
2022-11-23T20:54:05.844Z,100.00
2022-11-23T20:56:32.388Z,100.00
2022-11-23T20:59:04.102Z,100.00
2022-11-23T21:01:30.738Z,100.00
2022-11-23T21:03:58.686Z,100.00
2022-11-23T21:06:26.631Z,100.00
2022-11-23T21:08:53.784Z,100.00
2022-11-23T21:11:46.827Z,100.00
2022-11-23T21:14:19.198Z,100.00
2022-11-23T21:16:52.767Z,100.00
2022-11-23T21:19:20.997Z,100.00
2022-11-23T21:21:47.700Z,100.00
2022-11-23T21:24:14.159Z,100.00
2022-11-23T21:26:40.552Z,100.00
2022-11-23T21:29:11.217Z,100.00
2022-11-23T21:31:39.556Z,100.00
2022-11-23T21:34:06.168Z,100.00
2022-11-23T21:36:37.415Z,100.00
2022-11-23T21:39:05.935Z,100.00
2022-11-23T21:41:32.879Z,100.00
2022-11-23T21:43:59.574Z,100.00
2022-11-23T21:46:26.507Z,100.00
2022-11-23T21:48:55.208Z,100.00
2022-11-23T21:51:23.289Z,100.00
2022-11-23T21:53:49.690Z,100.00
2022-11-23T21:56:17.994Z,100.00
2022-11-23T21:58:44.675Z,100.00
2022-11-23T22:01:15.315Z,100.00
2022-11-23T22:03:45.835Z,100.00
2022-11-23T22:06:19.992Z,100.00
2022-11-23T22:08:51.682Z,100.00
2022-11-23T22:11:19.263Z,100.00
2022-11-23T22:13:45.722Z,100.00
2022-11-23T22:16:14.507Z,100.00
2022-11-23T22:18:41.081Z,100.00
2022-11-23T22:21:07.500Z,100.00
2022-11-23T22:23:33.929Z,100.00
2022-11-23T22:26:09.614Z,100.00
2022-11-23T22:28:41.002Z,100.00
2022-11-23T22:31:09.788Z,100.00
2022-11-23T22:33:36.739Z,100.00
2022-11-23T22:36:04.626Z,100.00
2022-11-23T22:38:32.280Z,100.00
2022-11-23T22:40:59.803Z,100.00
2022-11-23T22:43:26.793Z,100.00
2022-11-23T22:45:53.314Z,100.00
2022-11-23T22:48:19.998Z,100.00
2022-11-23T22:51:01.255Z,100.00
2022-11-23T22:53:28.371Z,100.00
2022-11-23T22:55:59.167Z,100.00
2022-11-23T22:58:25.556Z,100.00
2022-11-23T23:00:51.985Z,100.00
2022-11-23T23:03:18.500Z,100.00
2022-11-23T23:05:57.151Z,100.00
2022-11-23T23:08:24.947Z,100.00
2022-11-23T23:10:51.359Z,100.00
2022-11-23T23:13:17.985Z,100.00
2022-11-23T23:15:44.432Z,100.00
2022-11-23T23:18:11.389Z,100.00
2022-11-23T23:20:38.052Z,100.00
2022-11-23T23:23:05.334Z,100.00
2022-11-23T23:25:32.384Z,100.00
2022-11-23T23:27:59.144Z,100.00
2022-11-23T23:30:25.937Z,100.00
2022-11-23T23:32:57.917Z,100.00
2022-11-23T23:35:24.338Z,100.00
2022-11-23T23:37:51.215Z,100.00
2022-11-23T23:40:17.723Z,100.00
2022-11-23T23:42:44.120Z,100.00
2022-11-23T23:45:10.598Z,100.00
2022-11-23T23:47:37.843Z,100.00
2022-11-23T23:50:04.658Z,100.00
2022-11-23T23:52:31.149Z,100.00
2022-11-23T23:54:57.557Z,100.00
2022-11-23T23:57:23.954Z,100.00
2022-11-23T23:59:50.367Z,100.00
